Time,TemperatureF,DewpointF,PressureIn,WindDirection,WindDirectionDegrees,WindSpeedMPH,WindSpeedGustMPH,Humidity,HourlyPrecipIn,Conditions,Clouds,dailyrainin,SoftwareType,DateUTC
2013-01-26 00:05:00,25.9,24.2,30.06,WNW,288,1.0,2.0,93,0.00,,,0.00,Wunderground v.1.15,2013-01-26 05:05:00,
2013-01-26 00:09:00,25.9,24.2,30.06,NW,309,1.0,1.0,93,0.00,,,0.00,Wunderground v.1.15,2013-01-26 05:09:00,
2013-01-26 00:14:00,25.9,24.2,30.06,NW,309,1.0,1.0,93,0.00,,,0.00,Wunderground v.1.15,2013-01-26 05:14:00,
2013-01-26 00:19:00,25.9,24.2,30.05,West,278,1.0,2.0,93,0.00,,,0.00,Wunderground v.1.15,2013-01-26 05:19:00,
2013-01-26 00:24:00,25.9,24.2,30.05,West,271,1.0,2.0,93,0.00,,,0.00,Wunderground v.1.15,2013-01-26 05:24:00,
2013-01-26 00:29:00,25.9,24.2,30.05,NW,317,2.0,2.0,93,0.00,,,0.00,Wunderground v.1.15,2013-01-26 05:29:00,
2013-01-26 00:34:00,25.9,24.2,30.05,West,275,2.0,2.0,93,0.00,,,0.00,Wunderground v.1.15,2013-01-26 05:34:00,
2013-01-26 00:39:00,25.9,24.2,30.05,WNW,286,1.0,2.0,93,0.00,,,0.00,Wunderground v.1.15,2013-01-26 05:39:00,
2013-01-26 00:49:00,25.9,24.2,30.05,West,278,1.0,1.0,93,0.00,,,0.00,Wunderground v.1.15,2013-01-26 05:49:00,
2013-01-26 00:54:00,26.0,24.3,30.05,West,259,1.0,2.0,93,0.00,,,0.00,Wunderground v.1.15,2013-01-26 05:54:00,
2013-01-26 00:59:00,25.9,24.2,30.05,WSW,254,1.0,1.0,93,0.00,,,0.00,Wunderground v.1.15,2013-01-26 05:59:00,
2013-01-26 01:04:00,26.0,24.3,30.05,WSW,254,1.0,2.0,93,0.00,,,0.00,Wunderground v.1.15,2013-01-26 06:04:00,
2013-01-26 01:09:00,26.0,24.5,30.05,WSW,257,1.0,1.0,94,0.00,,,0.00,Wunderground v.1.15,2013-01-26 06:09:00,
2013-01-26 01:19:00,26.0,24.5,30.05,West,266,1.0,2.0,94,0.00,,,0.00,Wunderground v.1.15,2013-01-26 06:19:00,
2013-01-26 01:24:00,26.0,24.5,30.05,West,262,1.0,2.0,94,0.00,,,0.00,Wunderground v.1.15,2013-01-26 06:24:00,
2013-01-26 01:29:00,26.0,24.5,30.05,West,281,1.0,2.0,94,0.00,,,0.00,Wunderground v.1.15,2013-01-26 06:29:00,
2013-01-26 01:34:00,26.0,24.5,30.05,SW,235,1.0,2.0,94,0.00,,,0.00,Wunderground v.1.15,2013-01-26 06:34:00,
2013-01-26 01:40:00,26.0,24.5,30.05,WNW,284,1.0,1.0,94,0.00,,,0.00,Wunderground v.1.15,2013-01-26 06:40:00,
2013-01-26 01:49:00,26.0,24.5,30.04,WSW,257,1.0,1.0,94,0.00,,,0.00,Wunderground v.1.15,2013-01-26 06:49:00,
2013-01-26 01:54:00,26.0,24.5,30.04,WSW,257,1.0,2.0,94,0.00,,,0.00,Wunderground v.1.15,2013-01-26 06:54:00,
2013-01-26 01:59:00,26.0,24.5,30.03,WSW,257,1.0,2.0,94,0.00,,,0.00,Wunderground v.1.15,2013-01-26 06:59:00,
2013-01-26 02:09:00,26.0,24.5,30.03,SW,232,1.0,1.0,94,0.00,,,0.00,Wunderground v.1.15,2013-01-26 07:09:00,
2013-01-26 02:14:00,26.0,24.5,30.03,SW,232,1.0,2.0,94,0.00,,,0.00,Wunderground v.1.15,2013-01-26 07:14:00,
2013-01-26 02:19:00,26.0,24.5,30.04,WNW,288,1.0,3.0,94,0.00,,,0.00,Wunderground v.1.15,2013-01-26 07:19:00,
2013-01-26 02:24:00,26.1,24.6,30.04,WNW,302,1.0,3.0,94,0.00,,,0.00,Wunderground v.1.15,2013-01-26 07:24:00,
2013-01-26 02:29:00,26.1,24.6,30.04,West,273,1.0,1.0,94,0.00,,,0.00,Wunderground v.1.15,2013-01-26 07:29:00,
2013-01-26 02:39:00,26.2,25.0,30.04,West,273,0.0,2.0,95,0.00,,,0.00,Wunderground v.1.15,2013-01-26 07:39:00,
2013-01-26 02:44:00,26.2,25.0,30.04,West,273,0.0,2.0,95,0.00,,,0.00,Wunderground v.1.15,2013-01-26 07:44:00,
2013-01-26 02:49:00,26.3,25.1,30.04,West,273,0.0,2.0,95,0.00,,,0.00,Wunderground v.1.15,2013-01-26 07:49:00,
2013-01-26 02:54:00,26.3,25.1,30.04,WNW,293,0.0,2.0,95,0.00,,,0.00,Wunderground v.1.15,2013-01-26 07:54:00,
2013-01-26 02:59:00,26.3,25.1,30.04,WNW,293,1.0,1.0,95,0.00,,,0.00,Wunderground v.1.15,2013-01-26 07:59:00,
2013-01-26 03:09:00,26.4,25.2,30.04,WNW,290,1.0,1.0,95,0.00,,,0.00,Wunderground v.1.15,2013-01-26 08:09:00,
2013-01-26 03:14:00,26.4,25.2,30.03,West,278,1.0,2.0,95,0.00,,,0.00,Wunderground v.1.15,2013-01-26 08:14:00,
2013-01-26 03:19:00,26.5,25.3,30.03,West,278,1.0,1.0,95,0.00,,,0.00,Wunderground v.1.15,2013-01-26 08:19:00,
2013-01-26 03:24:00,26.5,25.3,30.03,West,281,1.0,2.0,95,0.00,,,0.00,Wunderground v.1.15,2013-01-26 08:24:00,
2013-01-26 03:29:00,26.5,25.3,30.04,West,281,1.0,2.0,95,0.00,,,0.00,Wunderground v.1.15,2013-01-26 08:29:00,
2013-01-26 03:39:00,26.6,25.4,30.04,West,281,1.0,2.0,95,0.00,,,0.00,Wunderground v.1.15,2013-01-26 08:39:00,
2013-01-26 03:44:00,26.6,25.4,30.04,WNW,300,1.0,2.0,95,0.00,,,0.00,Wunderground v.1.15,2013-01-26 08:44:00,
2013-01-26 03:49:00,26.6,25.4,30.04,WNW,300,1.0,1.0,95,0.00,,,0.00,Wunderground v.1.15,2013-01-26 08:49:00,
2013-01-26 03:54:00,26.7,25.5,30.04,WNW,300,0.0,2.0,95,0.00,,,0.00,Wunderground v.1.15,2013-01-26 08:54:00,
2013-01-26 04:00:00,26.7,25.5,30.04,WNW,300,0.0,2.0,95,0.00,,,0.00,Wunderground v.1.15,2013-01-26 09:00:00,
2013-01-26 04:09:00,26.8,25.6,30.04,West,260,1.0,2.0,95,0.00,,,0.00,Wunderground v.1.15,2013-01-26 09:09:00,
2013-01-26 04:14:00,26.8,25.6,30.05,West,260,1.0,2.0,95,0.00,,,0.00,Wunderground v.1.15,2013-01-26 09:14:00,
2013-01-26 04:19:00,26.8,25.6,30.05,West,260,0.0,2.0,95,0.00,,,0.00,Wunderground v.1.15,2013-01-26 09:19:00,
2013-01-26 04:29:00,26.9,25.7,30.05,SW,229,1.0,1.0,95,0.00,,,0.00,Wunderground v.1.15,2013-01-26 09:29:00,
2013-01-26 04:34:00,26.9,25.7,30.05,SW,229,0.0,2.0,95,0.00,,,0.00,Wunderground v.1.15,2013-01-26 09:34:00,
2013-01-26 04:39:00,26.9,25.7,30.05,SW,229,0.0,2.0,95,0.00,,,0.00,Wunderground v.1.15,2013-01-26 09:39:00,
2013-01-26 04:44:00,26.9,25.7,30.04,West,281,0.0,2.0,95,0.00,,,0.00,Wunderground v.1.15,2013-01-26 09:44:00,
2013-01-26 04:49:00,27.0,25.8,30.04,West,281,0.0,2.0,95,0.00,,,0.00,Wunderground v.1.15,2013-01-26 09:49:00,
2013-01-26 04:59:00,26.9,25.7,30.04,West,281,0.0,2.0,95,0.00,,,0.00,Wunderground v.1.15,2013-01-26 09:59:00,
2013-01-26 05:04:00,26.9,25.7,30.05,West,281,0.0,2.0,95,0.00,,,0.00,Wunderground v.1.15,2013-01-26 10:04:00,
2013-01-26 05:09:00,26.9,25.7,30.05,West,281,0.0,2.0,95,0.00,,,0.00,Wunderground v.1.15,2013-01-26 10:09:00,
2013-01-26 05:14:00,26.8,25.6,30.05,West,281,0.0,2.0,95,0.00,,,0.00,Wunderground v.1.15,2013-01-26 10:14:00,
2013-01-26 05:19:00,26.7,25.5,30.05,West,281,0.0,2.0,95,0.00,,,0.00,Wunderground v.1.15,2013-01-26 10:19:00,
2013-01-26 05:29:00,26.7,25.5,30.05,SW,228,0.0,2.0,95,0.00,,,0.00,Wunderground v.1.15,2013-01-26 10:29:00,
2013-01-26 05:34:00,26.5,25.3,30.05,SW,228,0.0,2.0,95,0.00,,,0.00,Wunderground v.1.15,2013-01-26 10:34:00,
2013-01-26 05:39:00,26.5,25.3,30.05,SW,228,0.0,2.0,95,0.00,,,0.00,Wunderground v.1.15,2013-01-26 10:39:00,
2013-01-26 05:44:00,26.5,25.3,30.06,SW,228,0.0,2.0,95,0.00,,,0.00,Wunderground v.1.15,2013-01-26 10:44:00,
2013-01-26 05:49:00,26.4,25.2,30.06,SW,228,0.0,2.0,95,0.00,,,0.00,Wunderground v.1.15,2013-01-26 10:49:00,
2013-01-26 05:59:00,26.3,25.1,30.08,SW,228,0.0,2.0,95,0.00,,,0.00,Wunderground v.1.15,2013-01-26 10:59:00,
2013-01-26 06:04:00,26.3,25.1,30.08,SW,228,0.0,2.0,95,0.00,,,0.00,Wunderground v.1.15,2013-01-26 11:04:00,
2013-01-26 06:09:00,26.3,25.1,30.08,SW,228,0.0,2.0,95,0.00,,,0.00,Wunderground v.1.15,2013-01-26 11:09:00,
2013-01-26 06:14:00,26.3,25.1,30.08,SW,228,0.0,2.0,95,0.00,,,0.00,Wunderground v.1.15,2013-01-26 11:14:00,
2013-01-26 06:20:00,26.2,25.0,30.08,SW,228,0.0,2.0,95,0.00,,,0.00,Wunderground v.1.15,2013-01-26 11:20:00,
2013-01-26 06:29:00,26.1,24.9,30.09,SW,228,0.0,2.0,95,0.00,,,0.00,Wunderground v.1.15,2013-01-26 11:29:00,
2013-01-26 06:34:00,26.0,24.5,30.09,SW,228,0.0,2.0,94,0.00,,,0.00,Wunderground v.1.15,2013-01-26 11:34:00,
2013-01-26 06:39:00,25.9,24.4,30.09,SW,228,0.0,2.0,94,0.00,,,0.00,Wunderground v.1.15,2013-01-26 11:39:00,
2013-01-26 06:49:00,25.7,24.2,30.10,SW,228,0.0,2.0,94,0.00,,,0.00,Wunderground v.1.15,2013-01-26 11:49:00,
2013-01-26 06:54:00,25.6,24.1,30.10,SW,228,0.0,2.0,94,0.00,,,0.00,Wunderground v.1.15,2013-01-26 11:54:00,
2013-01-26 06:59:00,25.5,24.0,30.10,SW,228,0.0,2.0,94,0.00,,,0.00,Wunderground v.1.15,2013-01-26 11:59:00,
2013-01-26 07:04:00,25.4,23.9,30.10,SW,228,0.0,2.0,94,0.00,,,0.00,Wunderground v.1.15,2013-01-26 12:04:00,
2013-01-26 07:10:00,25.4,23.9,30.10,SW,228,0.0,2.0,94,0.00,,,0.00,Wunderground v.1.15,2013-01-26 12:10:00,
2013-01-26 07:19:00,25.3,23.8,30.11,SW,228,0.0,2.0,94,0.00,,,0.00,Wunderground v.1.15,2013-01-26 12:19:00,
2013-01-26 07:24:00,25.3,23.8,30.11,SW,228,0.0,2.0,94,0.00,,,0.00,Wunderground v.1.15,2013-01-26 12:24:00,
2013-01-26 07:29:00,25.3,23.8,30.12,SW,228,0.0,2.0,94,0.00,,,0.00,Wunderground v.1.15,2013-01-26 12:29:00,
2013-01-26 07:34:00,25.2,23.7,30.12,SW,228,0.0,2.0,94,0.00,,,0.00,Wunderground v.1.15,2013-01-26 12:34:00,
2013-01-26 07:44:00,25.1,23.6,30.12,SW,228,0.0,2.0,94,0.00,,,0.00,Wunderground v.1.15,2013-01-26 12:44:00,
2013-01-26 07:49:00,25.1,23.6,30.13,SW,228,0.0,2.0,94,0.00,,,0.00,Wunderground v.1.15,2013-01-26 12:49:00,
2013-01-26 07:54:00,25.1,23.6,30.13,SW,228,0.0,2.0,94,0.00,,,0.00,Wunderground v.1.15,2013-01-26 12:54:00,
2013-01-26 08:04:00,25.2,24.0,30.14,SW,228,0.0,0.0,95,0.00,,,0.00,Wunderground v.1.15,2013-01-26 13:04:00,
2013-01-26 08:09:00,25.3,24.1,30.14,SW,228,0.0,0.0,95,0.00,,,0.00,Wunderground v.1.15,2013-01-26 13:09:00,
2013-01-26 08:14:00,25.3,24.1,30.15,SW,228,0.0,0.0,95,0.00,,,0.00,Wunderground v.1.15,2013-01-26 13:14:00,
2013-01-26 08:24:00,25.5,24.3,30.15,SW,228,0.0,0.0,95,0.00,,,0.00,Wunderground v.1.15,2013-01-26 13:24:00,
2013-01-26 08:29:00,25.7,24.5,30.16,SW,228,0.0,0.0,95,0.00,,,0.00,Wunderground v.1.15,2013-01-26 13:29:00,
2013-01-26 08:34:00,25.8,24.6,30.16,SW,228,0.0,0.0,95,0.00,,,0.00,Wunderground v.1.15,2013-01-26 13:34:00,
2013-01-26 08:39:00,25.9,24.7,30.16,SW,228,0.0,0.0,95,0.00,,,0.00,Wunderground v.1.15,2013-01-26 13:39:00,
2013-01-26 08:44:00,26.0,24.8,30.16,SW,228,0.0,0.0,95,0.00,,,0.00,Wunderground v.1.15,2013-01-26 13:44:00,
2013-01-26 08:54:00,26.3,25.1,30.16,SW,228,0.0,0.0,95,0.00,,,0.00,Wunderground v.1.15,2013-01-26 13:54:00,
2013-01-26 08:59:00,26.5,25.3,30.16,SW,228,0.0,0.0,95,0.00,,,0.00,Wunderground v.1.15,2013-01-26 13:59:00,
2013-01-26 09:09:00,26.8,25.6,30.16,SW,228,0.0,0.0,95,0.00,,,0.00,Wunderground v.1.15,2013-01-26 14:09:00,
2013-01-26 09:14:00,27.0,25.8,30.17,SW,228,0.0,0.0,95,0.00,,,0.00,Wunderground v.1.15,2013-01-26 14:14:00,
2013-01-26 09:19:00,27.1,25.9,30.17,SW,228,0.0,0.0,95,0.00,,,0.00,Wunderground v.1.15,2013-01-26 14:19:00,
2013-01-26 09:24:00,27.3,26.1,30.17,SW,228,0.0,0.0,95,0.00,,,0.00,Wunderground v.1.15,2013-01-26 14:24:00,
2013-01-26 09:29:00,27.4,26.2,30.18,SW,228,0.0,0.0,95,0.00,,,0.00,Wunderground v.1.15,2013-01-26 14:29:00,
2013-01-26 09:39:00,27.8,26.6,30.18,SW,228,0.0,0.0,95,0.00,,,0.00,Wunderground v.1.15,2013-01-26 14:39:00,
2013-01-26 09:44:00,28.0,26.8,30.19,SW,227,0.0,0.0,95,0.00,,,0.00,Wunderground v.1.15,2013-01-26 14:44:00,
2013-01-26 09:49:00,28.2,27.0,30.19,SW,227,0.0,0.0,95,0.00,,,0.00,Wunderground v.1.15,2013-01-26 14:49:00,
2013-01-26 09:59:00,28.7,27.4,30.19,SW,226,0.0,0.0,95,0.00,,,0.00,Wunderground v.1.15,2013-01-26 14:59:00,
2013-01-26 10:04:00,28.9,27.6,30.19,SW,226,0.0,0.0,95,0.00,,,0.00,Wunderground v.1.15,2013-01-26 15:04:00,
2013-01-26 10:09:00,29.2,27.9,30.19,SW,226,0.0,0.0,95,0.00,,,0.00,Wunderground v.1.15,2013-01-26 15:09:00,
2013-01-26 10:14:00,29.4,28.1,30.20,SW,227,0.0,0.0,95,0.00,,,0.00,Wunderground v.1.15,2013-01-26 15:14:00,
2013-01-26 10:19:00,29.6,28.3,30.20,SW,227,0.0,0.0,95,0.00,,,0.00,Wunderground v.1.15,2013-01-26 15:19:00,
2013-01-26 10:29:00,30.0,28.5,30.20,SW,227,0.0,0.0,94,0.00,,,0.00,Wunderground v.1.15,2013-01-26 15:29:00,
2013-01-26 10:34:00,30.2,28.9,30.20,SW,227,0.0,0.0,95,0.00,,,0.00,Wunderground v.1.15,2013-01-26 15:34:00,
2013-01-26 10:39:00,30.4,29.1,30.20,SW,227,0.0,0.0,95,0.00,,,0.00,Wunderground v.1.15,2013-01-26 15:39:00,
2013-01-26 10:44:00,30.7,29.4,30.20,SW,227,0.0,0.0,95,0.00,,,0.00,Wunderground v.1.15,2013-01-26 15:44:00,
2013-01-26 10:54:00,31.1,29.8,30.20,SW,226,0.0,0.0,95,0.00,,,0.00,Wunderground v.1.15,2013-01-26 15:54:00,
2013-01-26 10:59:00,31.3,30.0,30.20,SW,226,0.0,0.0,95,0.00,,,0.00,Wunderground v.1.15,2013-01-26 15:59:00,
2013-01-26 11:09:00,31.7,30.4,30.20,SW,227,0.0,0.0,95,0.00,,,0.00,Wunderground v.1.15,2013-01-26 16:09:00,
2013-01-26 11:14:00,31.9,30.6,30.21,SW,227,0.0,0.0,95,0.00,,,0.00,Wunderground v.1.15,2013-01-26 16:14:00,
2013-01-26 11:19:00,32.1,30.8,30.21,SW,227,0.0,0.0,95,0.00,,,0.00,Wunderground v.1.15,2013-01-26 16:19:00,
2013-01-26 11:29:00,32.4,31.1,30.20,SW,227,0.0,0.0,95,0.00,,,0.00,Wunderground v.1.15,2013-01-26 16:29:00,
2013-01-26 11:34:00,32.5,31.2,30.20,SW,227,0.0,0.0,95,0.00,,,0.00,Wunderground v.1.15,2013-01-26 16:34:00,
2013-01-26 11:39:00,32.6,31.3,30.20,SW,227,0.0,0.0,95,0.00,,,0.00,Wunderground v.1.15,2013-01-26 16:39:00,
2013-01-26 11:49:00,32.8,31.3,30.20,SW,227,0.0,0.0,94,0.00,,,0.00,Wunderground v.1.15,2013-01-26 16:49:00,
2013-01-26 11:54:00,32.8,31.5,30.20,SW,227,0.0,0.0,95,0.00,,,0.00,Wunderground v.1.15,2013-01-26 16:54:00,
2013-01-26 11:59:00,33.0,31.5,30.20,SW,228,0.0,0.0,94,0.00,,,0.00,Wunderground v.1.15,2013-01-26 16:59:00,
2013-01-26 12:05:00,33.0,31.5,30.20,SW,228,0.0,0.0,94,0.00,,,0.00,Wunderground v.1.15,2013-01-26 17:05:00,
2013-01-26 12:14:00,33.1,31.3,30.19,SW,228,0.0,0.0,93,0.00,,,0.00,Wunderground v.1.15,2013-01-26 17:14:00,
2013-01-26 12:19:00,33.2,31.4,30.19,NNE,26,0.0,0.0,93,0.00,,,0.00,Wunderground v.1.15,2013-01-26 17:19:00,
2013-01-26 12:29:00,33.3,31.5,30.19,NNE,26,0.0,0.0,93,0.00,,,0.00,Wunderground v.1.15,2013-01-26 17:29:00,
2013-01-26 12:34:00,33.4,31.3,30.19,NNE,26,0.0,0.0,92,0.00,,,0.00,Wunderground v.1.15,2013-01-26 17:34:00,
2013-01-26 12:39:00,33.5,31.4,30.19,NNE,26,0.0,0.0,92,0.00,,,0.01,Wunderground v.1.15,2013-01-26 17:39:00,
2013-01-26 12:44:00,33.6,31.8,30.17,NNE,26,0.0,0.0,93,0.12,,,0.02,Wunderground v.1.15,2013-01-26 17:44:00,
2013-01-26 12:54:00,33.7,31.6,30.17,NNE,26,0.0,0.0,92,0.11,,,0.06,Wunderground v.1.15,2013-01-26 17:54:00,
2013-01-26 12:59:00,33.8,32.0,30.17,NNE,26,0.0,0.0,93,0.06,,,0.06,Wunderground v.1.15,2013-01-26 17:59:00,
2013-01-26 13:04:00,33.8,31.7,30.17,NNE,26,0.0,1.0,92,0.04,,,0.06,Wunderground v.1.15,2013-01-26 18:04:00,
2013-01-26 13:09:00,33.9,31.8,30.17,NNE,26,0.0,1.0,92,0.00,,,0.06,Wunderground v.1.15,2013-01-26 18:09:00,
2013-01-26 13:14:00,34.0,31.9,30.17,NNE,26,0.0,1.0,92,0.00,,,0.06,Wunderground v.1.15,2013-01-26 18:14:00,
2013-01-26 13:24:00,34.3,32.5,30.17,NNE,26,0.0,1.0,93,0.00,,,0.07,Wunderground v.1.15,2013-01-26 18:24:00,
2013-01-26 13:29:00,34.4,32.6,30.17,NNE,26,0.0,1.0,93,0.00,,,0.07,Wunderground v.1.15,2013-01-26 18:29:00,
2013-01-26 13:34:00,34.5,32.7,30.17,NNE,26,0.0,1.0,93,0.00,,,0.07,Wunderground v.1.15,2013-01-26 18:34:00,
2013-01-26 13:39:00,34.6,32.8,30.17,NNE,26,0.0,1.0,93,0.00,,,0.07,Wunderground v.1.15,2013-01-26 18:39:00,
2013-01-26 13:49:00,34.8,33.0,30.17,NNE,26,0.0,1.0,93,0.00,,,0.08,Wunderground v.1.15,2013-01-26 18:49:00,
2013-01-26 13:54:00,34.8,32.7,30.17,NNW,343,0.0,1.0,92,0.00,,,0.08,Wunderground v.1.15,2013-01-26 18:54:00,
2013-01-26 13:59:00,35.0,32.9,30.17,NNW,343,0.0,1.0,92,0.00,,,0.08,Wunderground v.1.15,2013-01-26 18:59:00,
2013-01-26 14:04:00,35.1,33.0,30.17,NNW,343,0.0,1.0,92,0.00,,,0.08,Wunderground v.1.15,2013-01-26 19:04:00,
2013-01-26 14:14:00,35.4,33.6,30.17,NNW,343,0.0,1.0,93,0.00,,,0.08,Wunderground v.1.15,2013-01-26 19:14:00,
2013-01-26 14:19:00,35.5,33.4,30.17,NNW,343,0.0,1.0,92,0.00,,,0.08,Wunderground v.1.15,2013-01-26 19:19:00,
2013-01-26 14:24:00,35.5,33.4,30.17,NNW,343,0.0,1.0,92,0.00,,,0.09,Wunderground v.1.15,2013-01-26 19:24:00,
2013-01-26 14:29:00,35.6,33.2,30.17,NNW,343,0.0,1.0,91,0.00,,,0.09,Wunderground v.1.15,2013-01-26 19:29:00,
2013-01-26 14:34:00,35.5,33.1,30.17,NNW,343,0.0,1.0,91,0.00,,,0.09,Wunderground v.1.15,2013-01-26 19:34:00,
2013-01-26 14:44:00,35.6,33.2,30.17,NNW,343,0.0,1.0,91,0.00,,,0.09,Wunderground v.1.15,2013-01-26 19:44:00,
2013-01-26 14:49:00,35.6,33.5,30.17,NNW,343,0.0,0.0,92,0.00,,,0.09,Wunderground v.1.15,2013-01-26 19:49:00,
2013-01-26 14:54:00,35.6,33.5,30.17,NNW,343,0.0,0.0,92,0.00,,,0.09,Wunderground v.1.15,2013-01-26 19:54:00,
2013-01-26 14:59:00,35.6,33.5,30.17,NNW,343,0.0,0.0,92,0.00,,,0.10,Wunderground v.1.15,2013-01-26 19:59:00,
2013-01-26 15:04:00,35.7,33.6,30.17,NNW,343,0.0,0.0,92,0.00,,,0.10,Wunderground v.1.15,2013-01-26 20:04:00,
2013-01-26 15:14:00,35.6,33.5,30.17,NNW,343,0.0,0.0,92,0.00,,,0.10,Wunderground v.1.15,2013-01-26 20:14:00,
2013-01-26 15:19:00,35.5,33.4,30.17,NNW,343,0.0,0.0,92,0.00,,,0.10,Wunderground v.1.15,2013-01-26 20:19:00,
2013-01-26 15:24:00,35.6,33.5,30.17,NNW,343,0.0,0.0,92,0.00,,,0.10,Wunderground v.1.15,2013-01-26 20:24:00,
2013-01-26 15:29:00,35.6,33.5,30.18,NNW,343,0.0,0.0,92,0.00,,,0.10,Wunderground v.1.15,2013-01-26 20:29:00,
2013-01-26 15:39:00,35.6,33.2,30.18,NNW,343,0.0,0.0,91,0.00,,,0.10,Wunderground v.1.15,2013-01-26 20:39:00,
2013-01-26 15:44:00,35.6,33.2,30.18,NNW,343,0.0,0.0,91,0.00,,,0.10,Wunderground v.1.15,2013-01-26 20:44:00,
2013-01-26 15:49:00,35.6,33.2,30.18,NNW,343,0.0,0.0,91,0.00,,,0.10,Wunderground v.1.15,2013-01-26 20:49:00,
2013-01-26 15:54:00,35.5,33.1,30.18,NNW,343,0.0,0.0,91,0.00,,,0.10,Wunderground v.1.15,2013-01-26 20:54:00,
2013-01-26 15:59:00,35.5,33.1,30.18,NNW,343,0.0,0.0,91,0.00,,,0.11,Wunderground v.1.15,2013-01-26 20:59:00,
2013-01-26 16:09:00,35.5,33.1,30.18,NNW,343,0.0,0.0,91,0.00,,,0.11,Wunderground v.1.15,2013-01-26 21:09:00,
2013-01-26 16:14:00,35.4,33.3,30.20,NNW,343,0.0,0.0,92,0.00,,,0.11,Wunderground v.1.15,2013-01-26 21:14:00,
2013-01-26 16:19:00,35.4,33.3,30.20,NNW,343,0.0,0.0,92,0.00,,,0.11,Wunderground v.1.15,2013-01-26 21:19:00,
2013-01-26 16:29:00,35.3,33.2,30.20,NNW,343,0.0,0.0,92,0.00,,,0.11,Wunderground v.1.15,2013-01-26 21:29:00,
2013-01-26 16:34:00,35.2,32.8,30.20,NNW,343,0.0,0.0,91,0.00,,,0.11,Wunderground v.1.15,2013-01-26 21:34:00,
2013-01-26 16:39:00,35.2,33.1,30.20,NNW,343,0.0,0.0,92,0.00,,,0.11,Wunderground v.1.15,2013-01-26 21:39:00,
2013-01-26 16:44:00,35.1,33.0,30.20,NNW,343,0.0,0.0,92,0.00,,,0.11,Wunderground v.1.15,2013-01-26 21:44:00,
2013-01-26 16:49:00,35.1,33.0,30.20,NNW,343,0.0,0.0,92,0.00,,,0.11,Wunderground v.1.15,2013-01-26 21:49:00,
2013-01-26 16:59:00,35.0,33.2,30.20,NNW,343,0.0,0.0,93,0.00,,,0.11,Wunderground v.1.15,2013-01-26 21:59:00,
2013-01-26 17:04:00,34.9,32.8,30.20,NNW,343,0.0,0.0,92,0.00,,,0.11,Wunderground v.1.15,2013-01-26 22:04:00,
2013-01-26 17:09:00,34.7,32.9,30.20,NNW,343,0.0,0.0,93,0.00,,,0.11,Wunderground v.1.15,2013-01-26 22:09:00,
2013-01-26 17:14:00,34.5,32.7,30.21,NNW,343,0.0,0.0,93,0.00,,,0.11,Wunderground v.1.15,2013-01-26 22:14:00,
2013-01-26 17:19:00,34.4,32.6,30.21,NNW,343,0.0,0.0,93,0.00,,,0.11,Wunderground v.1.15,2013-01-26 22:19:00,
2013-01-26 17:29:00,34.1,32.3,30.21,NNW,343,0.0,0.0,93,0.00,,,0.11,Wunderground v.1.15,2013-01-26 22:29:00,
2013-01-26 17:34:00,33.9,32.1,30.21,NNW,343,0.0,0.0,93,0.00,,,0.11,Wunderground v.1.15,2013-01-26 22:34:00,
2013-01-26 17:39:00,33.7,31.9,30.21,NNW,343,0.0,0.0,93,0.00,,,0.11,Wunderground v.1.15,2013-01-26 22:39:00,
2013-01-26 17:44:00,33.5,32.0,30.22,NNW,343,0.0,0.0,94,0.00,,,0.11,Wunderground v.1.15,2013-01-26 22:44:00,
2013-01-26 17:49:00,33.2,31.4,30.22,NNW,343,0.0,0.0,93,0.00,,,0.11,Wunderground v.1.15,2013-01-26 22:49:00,
2013-01-26 17:59:00,32.8,31.3,30.22,NNW,343,0.0,0.0,94,0.00,,,0.11,Wunderground v.1.15,2013-01-26 22:59:00,
2013-01-26 18:04:00,32.7,31.2,30.23,NNW,343,0.0,0.0,94,0.00,,,0.11,Wunderground v.1.15,2013-01-26 23:04:00,
2013-01-26 18:09:00,32.5,31.0,30.23,NNW,343,0.0,0.0,94,0.00,,,0.11,Wunderground v.1.15,2013-01-26 23:09:00,
2013-01-26 18:19:00,32.1,30.6,30.24,NNW,343,0.0,0.0,94,0.00,,,0.11,Wunderground v.1.15,2013-01-26 23:19:00,
2013-01-26 18:24:00,32.0,30.5,30.24,NNW,343,0.0,0.0,94,0.00,,,0.11,Wunderground v.1.15,2013-01-26 23:24:00,
2013-01-26 18:29:00,31.7,30.2,30.24,NNW,343,0.0,0.0,94,0.00,,,0.11,Wunderground v.1.15,2013-01-26 23:29:00,
2013-01-26 18:34:00,31.5,30.0,30.24,NNW,343,0.0,0.0,94,0.00,,,0.11,Wunderground v.1.15,2013-01-26 23:34:00,
2013-01-26 18:39:00,31.4,29.9,30.24,NNW,343,0.0,0.0,94,0.00,,,0.11,Wunderground v.1.15,2013-01-26 23:39:00,
2013-01-26 18:49:00,31.1,29.6,30.25,NNW,343,0.0,0.0,94,0.00,,,0.11,Wunderground v.1.15,2013-01-26 23:49:00,
2013-01-26 18:54:00,30.9,29.4,30.25,NNW,343,0.0,0.0,94,0.00,,,0.11,Wunderground v.1.15,2013-01-26 23:54:00,
2013-01-26 18:59:00,30.8,29.3,30.25,NNW,343,0.0,0.0,94,0.00,,,0.11,Wunderground v.1.15,2013-01-26 23:59:00,
2013-01-26 19:04:00,30.6,29.3,30.25,NNW,343,0.0,0.0,95,0.00,,,0.11,Wunderground v.1.15,2013-01-27 00:04:00,
2013-01-26 19:09:00,30.5,29.0,30.25,NNW,343,0.0,0.0,94,0.00,,,0.11,Wunderground v.1.15,2013-01-27 00:09:00,
2013-01-26 19:19:00,30.3,29.0,30.26,NNW,343,0.0,0.0,95,0.00,,,0.11,Wunderground v.1.15,2013-01-27 00:19:00,
2013-01-26 19:24:00,30.2,28.9,30.26,NNW,343,0.0,0.0,95,0.00,,,0.11,Wunderground v.1.15,2013-01-27 00:24:00,
2013-01-26 19:29:00,30.2,28.9,30.26,NNW,343,0.0,0.0,95,0.00,,,0.11,Wunderground v.1.15,2013-01-27 00:29:00,
2013-01-26 19:34:00,30.1,28.8,30.26,NNW,343,0.0,0.0,95,0.00,,,0.11,Wunderground v.1.15,2013-01-27 00:34:00,
2013-01-26 19:39:00,30.1,28.8,30.26,NNW,343,0.0,0.0,95,0.00,,,0.11,Wunderground v.1.15,2013-01-27 00:39:00,
2013-01-26 19:49:00,29.9,28.6,30.27,NNW,343,0.0,0.0,95,0.00,,,0.11,Wunderground v.1.15,2013-01-27 00:49:00,
2013-01-26 19:54:00,29.8,28.5,30.27,NNW,343,0.0,0.0,95,0.00,,,0.11,Wunderground v.1.15,2013-01-27 00:54:00,
2013-01-26 19:59:00,29.8,28.5,30.27,NNW,343,0.0,0.0,95,0.00,,,0.11,Wunderground v.1.15,2013-01-27 00:59:00,
2013-01-26 20:09:00,29.5,28.2,30.27,NNW,343,0.0,0.0,95,0.00,,,0.11,Wunderground v.1.15,2013-01-27 01:09:00,
2013-01-26 20:14:00,29.4,28.1,30.27,NNW,343,0.0,0.0,95,0.00,,,0.11,Wunderground v.1.15,2013-01-27 01:14:00,
2013-01-26 20:19:00,29.3,28.0,30.27,NNW,343,0.0,0.0,95,0.00,,,0.11,Wunderground v.1.15,2013-01-27 01:19:00,
2013-01-26 20:24:00,29.2,27.9,30.27,NNW,343,0.0,0.0,95,0.00,,,0.11,Wunderground v.1.15,2013-01-27 01:24:00,
2013-01-26 20:29:00,29.1,27.8,30.28,NNW,343,0.0,0.0,95,0.00,,,0.11,Wunderground v.1.15,2013-01-27 01:29:00,
2013-01-26 20:39:00,28.8,27.5,30.28,NNW,343,0.0,0.0,95,0.00,,,0.11,Wunderground v.1.15,2013-01-27 01:39:00,
2013-01-26 20:44:00,28.7,27.4,30.28,NNW,343,0.0,0.0,95,0.00,,,0.11,Wunderground v.1.15,2013-01-27 01:44:00,
2013-01-26 20:49:00,28.6,27.4,30.28,NNW,343,0.0,0.0,95,0.00,,,0.11,Wunderground v.1.15,2013-01-27 01:49:00,
2013-01-26 20:54:00,28.5,27.3,30.28,NNW,343,0.0,0.0,95,0.00,,,0.11,Wunderground v.1.15,2013-01-27 01:54:00,
2013-01-26 20:59:00,28.4,27.2,30.29,NNW,343,0.0,0.0,95,0.00,,,0.11,Wunderground v.1.15,2013-01-27 01:59:00,
2013-01-26 21:09:00,28.1,26.9,30.29,NNW,343,0.0,0.0,95,0.00,,,0.11,Wunderground v.1.15,2013-01-27 02:09:00,
2013-01-26 21:14:00,28.0,26.8,30.30,NNW,343,0.0,0.0,95,0.00,,,0.11,Wunderground v.1.15,2013-01-27 02:14:00,
2013-01-26 21:19:00,27.9,26.7,30.30,NNW,343,0.0,0.0,95,0.00,,,0.11,Wunderground v.1.15,2013-01-27 02:19:00,
2013-01-26 21:24:00,27.9,26.7,30.30,NNW,343,0.0,0.0,95,0.00,,,0.11,Wunderground v.1.15,2013-01-27 02:24:00,
2013-01-26 21:34:00,27.7,26.5,30.31,NNW,343,0.0,0.0,95,0.00,,,0.11,Wunderground v.1.15,2013-01-27 02:34:00,
2013-01-26 21:39:00,27.6,26.4,30.31,NNW,343,0.0,0.0,95,0.00,,,0.11,Wunderground v.1.15,2013-01-27 02:39:00,
2013-01-26 21:44:00,27.4,26.2,30.32,NNW,343,0.0,0.0,95,0.00,,,0.11,Wunderground v.1.15,2013-01-27 02:44:00,
2013-01-26 21:49:00,27.4,26.2,30.32,NNW,343,0.0,0.0,95,0.00,,,0.11,Wunderground v.1.15,2013-01-27 02:49:00,
2013-01-26 21:59:00,27.2,26.0,30.32,NNW,343,0.0,0.0,95,0.00,,,0.11,Wunderground v.1.15,2013-01-27 02:59:00,
2013-01-26 22:04:00,27.1,25.9,30.32,NNW,343,0.0,0.0,95,0.00,,,0.11,Wunderground v.1.15,2013-01-27 03:04:00,
2013-01-26 22:09:00,27.0,25.8,30.32,NNW,343,0.0,0.0,95,0.00,,,0.11,Wunderground v.1.15,2013-01-27 03:09:00,
2013-01-26 22:14:00,26.9,25.7,30.33,NNW,343,0.0,0.0,95,0.00,,,0.11,Wunderground v.1.15,2013-01-27 03:14:00,
2013-01-26 22:19:00,26.8,25.6,30.33,NNW,343,0.0,0.0,95,0.00,,,0.11,Wunderground v.1.15,2013-01-27 03:19:00,
2013-01-26 22:29:00,26.6,25.4,30.33,NNW,343,0.0,0.0,95,0.00,,,0.11,Wunderground v.1.15,2013-01-27 03:29:00,
2013-01-26 22:34:00,26.4,25.2,30.33,NNW,343,0.0,0.0,95,0.00,,,0.11,Wunderground v.1.15,2013-01-27 03:34:00,
2013-01-26 22:39:00,26.4,25.2,30.33,NNW,343,0.0,0.0,95,0.00,,,0.11,Wunderground v.1.15,2013-01-27 03:39:00,
2013-01-26 22:44:00,26.3,25.1,30.33,NNW,343,0.0,0.0,95,0.00,,,0.11,Wunderground v.1.15,2013-01-27 03:44:00,
2013-01-26 22:49:00,26.2,25.0,30.33,NNW,343,0.0,0.0,95,0.00,,,0.11,Wunderground v.1.15,2013-01-27 03:49:00,
2013-01-26 22:59:00,26.1,24.9,30.33,NNW,343,0.0,0.0,95,0.00,,,0.11,Wunderground v.1.15,2013-01-27 03:59:00,
2013-01-26 23:04:00,26.0,24.8,30.34,NNW,343,0.0,0.0,95,0.00,,,0.11,Wunderground v.1.15,2013-01-27 04:04:00,
2013-01-26 23:09:00,26.0,24.8,30.34,NNW,343,0.0,0.0,95,0.00,,,0.11,Wunderground v.1.15,2013-01-27 04:09:00,
2013-01-26 23:14:00,25.9,24.7,30.35,NNW,343,0.0,0.0,95,0.00,,,0.11,Wunderground v.1.15,2013-01-27 04:14:00,
2013-01-26 23:24:00,25.8,24.6,30.35,NNW,343,0.0,0.0,95,0.00,,,0.11,Wunderground v.1.15,2013-01-27 04:24:00,
2013-01-26 23:29:00,25.7,24.5,30.35,NNW,343,0.0,0.0,95,0.00,,,0.11,Wunderground v.1.15,2013-01-27 04:29:00,
2013-01-26 23:34:00,25.6,24.4,30.36,NNW,343,0.0,0.0,95,0.00,,,0.11,Wunderground v.1.15,2013-01-27 04:34:00,
2013-01-26 23:39:00,25.5,24.3,30.36,NNW,343,0.0,0.0,95,0.00,,,0.11,Wunderground v.1.15,2013-01-27 04:39:00,
2013-01-26 23:49:00,25.3,24.1,30.36,NNW,343,0.0,0.0,95,0.00,,,0.11,Wunderground v.1.15,2013-01-27 04:49:00,
2013-01-26 23:54:00,25.2,24.0,30.36,NNW,343,0.0,0.0,95,0.00,,,0.11,Wunderground v.1.15,2013-01-27 04:54:00,
2013-01-26 23:59:00,25.1,23.9,30.35,NNW,343,0.0,0.0,95,0.00,,,0.11,Wunderground v.1.15,2013-01-27 04:59:00,